Time;durP1;ratioP1;P1;durP2;ratioP2;P2;SDS_P1;SDS_P2;PMS_P1;PMS_P2;Temp;Humidity;BMP_temperature;BMP_pressure;BME280_temperature;BME280_humidity;BME280_pressure;Samples;Min_cycle;Max_cycle;Signal;HPM_P1;HPM_P2
2021/08/07 00:00:35;;;;;;;31.10;5.20;;;14.90;91.20;;;;;;5074078;28;20626;-90
2021/08/07 00:03:01;;;;;;;27.13;5.65;;;14.90;91.30;;;;;;5056266;28;20617;-90
2021/08/07 00:05:26;;;;;;;19.95;5.55;;;14.80;91.20;;;;;;5073812;28;20175;-89
2021/08/07 00:07:52;;;;;;;22.48;6.22;;;14.90;91.30;;;;;;5073787;28;20235;-90
2021/08/07 00:10:18;;;;;;;14.88;5.93;;;14.80;91.30;;;;;;5073907;28;20163;-90
2021/08/07 00:12:43;;;;;;;16.83;5.70;;;14.90;91.30;;;;;;5055486;28;20186;-89
2021/08/07 00:15:09;;;;;;;15.60;5.55;;;14.90;91.50;;;;;;5073829;28;20172;-90
2021/08/07 00:17:35;;;;;;;11.70;5.55;;;14.90;91.50;;;;;;5073469;28;20179;-90
2021/08/07 00:20:01;;;;;;;14.30;4.93;;;14.90;91.60;;;;;;5073789;28;20163;-90
2021/08/07 00:22:27;;;;;;;9.45;5.10;;;14.90;91.40;;;;;;5056179;28;20268;-90
2021/08/07 00:24:53;;;;;;;12.80;5.50;;;15.00;91.40;;;;;;5073813;28;20209;-90
2021/08/07 00:27:19;;;;;;;12.02;5.50;;;15.10;91.40;;;;;;5055303;28;20212;-90
2021/08/07 00:29:44;;;;;;;14.20;5.30;;;15.10;91.40;;;;;;5056150;28;20179;-89
2021/08/07 00:32:10;;;;;;;10.70;5.95;;;15.00;91.20;;;;;;5073138;28;20167;-90
2021/08/07 00:34:35;;;;;;;17.15;6.00;;;15.00;91.30;;;;;;5073203;28;20213;-90
2021/08/07 00:37:04;;;;;;;16.60;6.47;;;15.00;91.20;;;;;;5055353;28;20222;-91
2021/08/07 00:39:30;;;;;;;6.72;5.32;;;14.90;91.20;;;;;;5073335;28;20163;-91
2021/08/07 00:41:56;;;;;;;8.02;4.63;;;14.90;91.20;;;;;;5055366;28;20171;-91
2021/08/07 00:44:22;;;;;;;9.25;5.07;;;14.90;91.30;;;;;;5073429;28;20203;-90
2021/08/07 00:46:47;;;;;;;13.02;4.40;;;14.90;91.10;;;;;;5073220;28;20632;-91
2021/08/07 00:49:13;;;;;;;7.20;4.60;;;14.90;91.10;;;;;;5055375;28;20202;-91
2021/08/07 00:51:39;;;;;;;14.07;5.00;;;14.90;91.20;;;;;;5057384;28;20197;-91
2021/08/07 00:54:04;;;;;;;11.30;5.55;;;14.90;91.20;;;;;;5077011;28;20187;-91
2021/08/07 00:56:30;;;;;;;16.65;5.25;;;14.90;91.30;;;;;;5077404;28;20657;-91
2021/08/07 00:58:56;;;;;;;9.30;5.32;;;14.80;91.40;;;;;;5077036;28;20195;-91
2021/08/07 01:01:24;;;;;;;9.23;5.60;;;14.80;91.60;;;;;;5077268;28;20248;-91
2021/08/07 01:03:54;;;;;;;16.98;5.38;;;14.90;91.70;;;;;;5059014;28;20195;-91
2021/08/07 01:06:53;;;;;;;5.75;5.15;;;14.90;91.80;;;;;;5076765;28;20547;-91
2021/08/07 01:09:34;;;;;;;13.65;5.60;;;14.90;91.90;;;;;;5058962;28;20195;-91
2021/08/07 01:12:26;;;;;;;12.90;6.22;;;14.90;91.90;;;;;;5077070;28;20144;-91
2021/08/07 01:14:57;;;;;;;9.93;6.88;;;15.00;92.10;;;;;;5058755;28;20224;-91
2021/08/07 01:17:27;;;;;;;13.43;6.63;;;15.00;92.40;;;;;;5076756;28;20243;-90
2021/08/07 01:20:14;;;;;;;15.43;7.73;;;15.00;92.60;;;;;;5058723;28;20175;-91
2021/08/07 01:22:53;;;;;;;10.30;7.00;;;15.10;92.70;;;;;;5076508;28;20196;-91
2021/08/07 01:25:19;;;;;;;15.63;7.37;;;15.10;92.80;;;;;;5058807;28;20197;-91
2021/08/07 01:27:46;;;;;;;15.20;7.80;;;15.10;92.80;;;;;;5058430;28;20210;-91
2021/08/07 01:30:13;;;;;;;13.40;7.63;;;15.10;92.80;;;;;;5058467;28;20662;-91
2021/08/07 01:32:40;;;;;;;15.67;8.60;;;15.00;92.90;;;;;;5076174;28;20167;-91
2021/08/07 01:35:08;;;;;;;15.83;8.80;;;15.10;93.00;;;;;;5076268;28;20175;-91
2021/08/07 01:37:34;;;;;;;16.93;8.13;;;15.10;93.10;;;;;;5076372;28;20320;-90
2021/08/07 01:40:00;;;;;;;15.53;7.83;;;15.10;93.10;;;;;;5076288;28;20179;-91
2021/08/07 01:42:27;;;;;;;16.20;8.40;;;15.10;93.10;;;;;;5076236;28;20171;-90
2021/08/07 01:44:53;;;;;;;14.00;8.10;;;15.10;93.10;;;;;;5058803;28;20207;-91
2021/08/07 01:47:53;;;;;;;14.10;7.93;;;15.10;93.10;;;;;;5058449;28;20297;-91
2021/08/07 01:50:29;;;;;;;19.37;7.93;;;15.20;93.10;;;;;;5058369;28;20526;-90
2021/08/07 01:53:04;;;;;;;11.90;8.50;;;15.20;93.00;;;;;;5075969;28;20200;-91
2021/08/07 01:55:35;;;;;;;10.77;8.80;;;15.20;93.00;;;;;;5058375;28;20586;-91
2021/08/07 01:58:11;;;;;;;12.80;7.53;;;15.30;92.90;;;;;;5076063;28;20639;-91
2021/08/07 02:00:40;;;;;;;20.00;8.70;;;15.20;92.90;;;;;;5076608;28;20175;-91
2021/08/07 02:03:08;;;;;;;18.37;8.47;;;15.20;92.80;;;;;;5074791;28;20545;-91
2021/08/07 02:05:35;;;;;;;15.87;8.23;;;15.20;92.80;;;;;;5075788;28;20171;-91
2021/08/07 02:08:02;;;;;;;15.33;8.30;;;15.20;92.70;;;;;;5075627;28;20199;-91
2021/08/07 02:10:28;;;;;;;15.47;7.87;;;15.20;92.70;;;;;;5057877;28;20205;-91
2021/08/07 02:12:54;;;;;;;13.10;8.50;;;15.20;92.70;;;;;;5057822;28;20253;-91
2021/08/07 02:15:21;;;;;;;15.33;9.00;;;15.20;92.70;;;;;;5057742;28;20172;-91
2021/08/07 02:17:48;;;;;;;12.33;9.00;;;15.10;92.70;;;;;;5057815;28;20201;-91
2021/08/07 02:20:16;;;;;;;12.90;9.20;;;15.00;92.80;;;;;;5075592;28;20647;-91
2021/08/07 02:22:44;;;;;;;16.37;9.17;;;15.10;92.90;;;;;;5057715;28;20183;-91
2021/08/07 02:25:11;;;;;;;14.73;9.27;;;15.10;92.80;;;;;;5057467;28;20180;-91
2021/08/07 02:27:37;;;;;;;14.40;8.37;;;15.10;92.80;;;;;;5075236;28;20206;-91
2021/08/07 02:30:05;;;;;;;18.63;9.33;;;15.10;92.80;;;;;;5057367;28;20171;-91
2021/08/07 02:32:31;;;;;;;17.53;9.23;;;15.00;92.90;;;;;;5075360;28;20246;-91
2021/08/07 02:34:57;;;;;;;11.33;9.60;;;15.10;92.80;;;;;;5057190;28;20248;-91
2021/08/07 02:37:24;;;;;;;17.27;9.47;;;15.00;92.80;;;;;;5075111;28;20238;-91
2021/08/07 02:39:50;;;;;;;15.87;9.97;;;14.90;92.90;;;;;;5057516;28;20178;-90
2021/08/07 02:42:16;;;;;;;13.50;9.43;;;14.90;93.10;;;;;;5057463;28;20659;-91
2021/08/07 02:44:42;;;;;;;13.10;9.90;;;14.90;93.10;;;;;;5057092;28;20258;-91
2021/08/07 02:47:08;;;;;;;24.10;10.00;;;14.90;93.10;;;;;;5075090;28;20171;-91
2021/08/07 02:49:34;;;;;;;18.13;10.23;;;14.90;93.10;;;;;;5075028;28;20197;-91
2021/08/07 02:52:00;;;;;;;16.93;10.77;;;14.90;93.10;;;;;;5057175;28;20270;-91
2021/08/07 02:54:26;;;;;;;17.73;9.87;;;14.90;93.10;;;;;;5057128;28;20191;-91
2021/08/07 02:56:52;;;;;;;14.47;10.57;;;14.90;93.00;;;;;;5075109;28;20194;-91
2021/08/07 02:59:20;;;;;;;14.87;10.47;;;15.00;93.00;;;;;;5074940;28;20175;-91
2021/08/07 03:01:46;;;;;;;17.30;10.67;;;14.90;93.00;;;;;;5057138;28;20179;-91
2021/08/07 03:04:11;;;;;;;14.27;9.60;;;15.00;93.00;;;;;;5056840;28;20207;-91
2021/08/07 03:06:38;;;;;;;16.03;8.20;;;15.00;92.90;;;;;;5056888;28;20182;-91
2021/08/07 03:09:03;;;;;;;12.77;9.47;;;15.00;92.80;;;;;;5056583;28;20196;-91
2021/08/07 03:11:29;;;;;;;16.00;8.70;;;15.00;92.70;;;;;;5074590;28;20167;-91
2021/08/07 03:13:55;;;;;;;17.70;9.73;;;15.00;92.70;;;;;;5074037;28;20275;-91
2021/08/07 03:16:20;;;;;;;26.33;9.90;;;14.90;92.60;;;;;;5074529;28;20250;-91
2021/08/07 03:18:46;;;;;;;10.73;9.50;;;14.90;92.60;;;;;;5056511;28;20651;-91
2021/08/07 03:21:12;;;;;;;11.63;9.70;;;14.80;92.60;;;;;;5056700;28;20179;-91
2021/08/07 03:23:37;;;;;;;11.77;8.60;;;14.90;92.70;;;;;;5056360;28;20201;-91
2021/08/07 03:26:03;;;;;;;11.07;8.23;;;14.90;92.70;;;;;;5056366;28;20197;-91
2021/08/07 03:28:29;;;;;;;16.67;8.73;;;14.90;92.50;;;;;;5074464;28;20273;-91
2021/08/07 03:30:54;;;;;;;11.30;7.23;;;14.90;92.60;;;;;;5056335;28;20241;-91
2021/08/07 03:33:20;;;;;;;10.70;7.22;;;14.90;92.50;;;;;;5056139;28;20187;-91
2021/08/07 03:35:45;;;;;;;19.58;6.85;;;14.90;92.40;;;;;;5074070;28;20167;-91
2021/08/07 03:38:11;;;;;;;25.90;7.45;;;14.90;92.20;;;;;;5074128;28;20179;-91
2021/08/07 03:40:37;;;;;;;38.90;7.47;;;14.80;92.00;;;;;;5073969;28;20171;-91
2021/08/07 03:43:02;;;;;;;23.97;7.07;;;14.80;91.90;;;;;;5056047;28;20202;-91
2021/08/07 03:45:28;;;;;;;18.40;6.70;;;14.70;91.90;;;;;;5056002;28;20163;-91
2021/08/07 03:47:54;;;;;;;25.83;7.60;;;14.70;91.90;;;;;;5073912;28;20671;-91
2021/08/07 03:50:22;;;;;;;20.13;7.60;;;14.60;92.00;;;;;;5074018;28;20174;-91
2021/08/07 03:52:48;;;;;;;27.20;8.17;;;14.50;92.00;;;;;;5073826;28;20171;-91
2021/08/07 03:55:14;;;;;;;23.93;7.90;;;14.50;92.10;;;;;;5073765;28;20171;-91
2021/08/07 03:58:06;;;;;;;23.10;7.97;;;14.60;92.10;;;;;;5055838;28;20175;-91
2021/08/07 04:00:34;;;;;;;15.80;7.40;;;14.70;92.10;;;;;;5053249;28;20723;-91
2021/08/07 04:03:00;;;;;;;15.03;7.40;;;14.60;92.10;;;;;;5073691;28;20187;-91
2021/08/07 04:05:26;;;;;;;23.80;7.10;;;14.80;92.10;;;;;;5073551;28;20178;-91
2021/08/07 04:07:58;;;;;;;24.20;7.40;;;14.70;92.00;;;;;;5055627;28;20202;-91
2021/08/07 04:10:24;;;;;;;23.03;8.27;;;14.70;92.00;;;;;;5073662;28;20159;-91
2021/08/07 04:12:49;;;;;;;16.60;7.70;;;14.70;92.00;;;;;;5055674;28;20705;-91
2021/08/07 04:15:15;;;;;;;15.80;8.03;;;14.70;92.00;;;;;;5073650;28;20195;-91
2021/08/07 04:17:41;;;;;;;14.67;7.17;;;14.60;92.00;;;;;;5055696;28;20541;-91
2021/08/07 04:20:09;;;;;;;20.43;8.47;;;14.60;92.10;;;;;;5073715;28;20172;-91
2021/08/07 04:22:36;;;;;;;14.87;8.60;;;14.60;92.20;;;;;;5073343;28;20167;-91
2021/08/07 04:25:01;;;;;;;22.63;9.23;;;14.60;92.20;;;;;;5072987;28;20171;-91
2021/08/07 04:27:27;;;;;;;14.73;9.40;;;14.50;92.40;;;;;;5072978;28;20199;-91
2021/08/07 04:29:53;;;;;;;19.53;9.87;;;14.40;92.70;;;;;;5073477;28;20210;-91
2021/08/07 04:32:18;;;;;;;18.37;9.33;;;14.50;92.80;;;;;;5055487;28;20171;-91
2021/08/07 04:34:44;;;;;;;18.37;9.37;;;14.50;92.80;;;;;;5055445;28;20187;-91
2021/08/07 04:37:11;;;;;;;17.20;9.10;;;14.50;92.80;;;;;;5055352;28;20171;-91
2021/08/07 04:39:36;;;;;;;10.03;8.90;;;14.50;92.80;;;;;;5073339;28;20163;-91
2021/08/07 04:42:02;;;;;;;14.63;8.43;;;14.60;92.90;;;;;;5073563;28;20171;-91
2021/08/07 04:44:28;;;;;;;16.97;8.87;;;14.70;92.70;;;;;;5055498;28;20237;-91
2021/08/07 04:46:54;;;;;;;11.97;10.10;;;14.60;92.60;;;;;;5055446;28;20175;-91
2021/08/07 04:49:19;;;;;;;14.20;9.67;;;14.60;92.60;;;;;;5073302;28;20199;-91
2021/08/07 04:51:45;;;;;;;13.03;9.77;;;14.60;92.70;;;;;;5055457;28;20171;-91
2021/08/07 04:54:11;;;;;;;13.10;10.43;;;14.70;92.70;;;;;;5073569;28;20252;-91
2021/08/07 04:56:37;;;;;;;17.97;10.00;;;14.70;92.90;;;;;;5055302;28;20171;-91
2021/08/07 04:59:04;;;;;;;17.13;10.03;;;14.70;92.90;;;;;;5073250;28;20701;-91
2021/08/07 05:01:29;;;;;;;16.40;9.13;;;14.80;92.80;;;;;;5073002;28;20172;-91
2021/08/07 05:03:55;;;;;;;18.80;10.97;;;14.80;92.70;;;;;;5072993;28;20195;-91
2021/08/07 05:06:21;;;;;;;18.90;10.60;;;14.80;92.80;;;;;;5055130;28;20183;-92
2021/08/07 05:08:46;;;;;;;18.87;10.93;;;14.80;92.90;;;;;;5055142;28;20203;-91
2021/08/07 05:11:12;;;;;;;12.77;10.77;;;14.80;92.90;;;;;;5055180;28;20176;-91
2021/08/07 05:13:38;;;;;;;12.77;11.53;;;14.80;92.90;;;;;;5072889;28;20249;-91
2021/08/07 05:16:04;;;;;;;16.83;12.73;;;14.80;93.00;;;;;;5055142;28;20262;-91
2021/08/07 05:18:30;;;;;;;14.90;12.13;;;14.80;93.00;;;;;;5054937;28;20183;-91
2021/08/07 05:20:56;;;;;;;20.30;13.93;;;14.80;93.10;;;;;;5072999;28;20175;-91
2021/08/07 05:23:21;;;;;;;23.63;13.90;;;14.90;93.20;;;;;;5072995;28;20191;-91
2021/08/07 05:25:47;;;;;;;18.07;13.63;;;14.90;93.20;;;;;;5055454;28;20236;-91
2021/08/07 05:28:13;;;;;;;22.70;14.37;;;15.00;93.30;;;;;;5055020;28;20199;-91
2021/08/07 05:30:38;;;;;;;21.73;15.27;;;15.00;93.30;;;;;;5055143;28;20589;-91
2021/08/07 05:33:04;;;;;;;19.50;15.37;;;15.00;93.40;;;;;;5055149;28;20203;-91
2021/08/07 05:35:30;;;;;;;25.67;16.30;;;15.10;93.50;;;;;;5072961;28;20189;-91
2021/08/07 05:37:56;;;;;;;33.90;17.97;;;15.20;93.60;;;;;;5075750;28;20172;-91
2021/08/07 05:40:21;;;;;;;20.77;16.27;;;15.20;93.60;;;;;;5058398;28;20278;-91
2021/08/07 05:42:48;;;;;;;21.73;17.73;;;15.30;93.60;;;;;;5058571;28;20187;-91
2021/08/07 05:45:14;;;;;;;23.67;17.60;;;15.30;93.60;;;;;;5076656;28;20171;-91
2021/08/07 05:47:40;;;;;;;23.53;16.80;;;15.40;93.60;;;;;;5076403;28;20203;-91
2021/08/07 05:50:07;;;;;;;27.37;17.17;;;15.50;93.70;;;;;;5076230;28;20206;-91
2021/08/07 05:52:34;;;;;;;23.67;18.13;;;15.50;93.60;;;;;;5076158;28;20254;-91
2021/08/07 05:55:00;;;;;;;21.00;17.00;;;15.60;93.70;;;;;;5058419;28;20553;-91
2021/08/07 05:57:25;;;;;;;25.70;17.37;;;15.60;93.60;;;;;;5058092;28;20183;-91
2021/08/07 05:59:51;;;;;;;21.90;16.57;;;15.60;93.50;;;;;;5076262;28;20214;-91
2021/08/07 06:02:17;;;;;;;21.07;17.10;;;15.70;93.30;;;;;;5058017;28;20267;-91
2021/08/07 06:04:43;;;;;;;24.47;16.97;;;15.70;93.30;;;;;;5058066;28;20329;-91
2021/08/07 06:07:09;;;;;;;18.90;16.90;;;15.70;93.30;;;;;;5076411;28;20176;-91
2021/08/07 06:09:34;;;;;;;21.10;16.63;;;15.70;93.30;;;;;;5058414;28;20184;-91
2021/08/07 06:12:00;;;;;;;23.60;17.05;;;15.80;93.50;;;;;;5058017;28;20658;-91
2021/08/07 06:14:26;;;;;;;24.95;17.70;;;15.90;93.40;;;;;;5058162;28;20191;-91
2021/08/07 06:16:52;;;;;;;22.35;16.80;;;16.00;93.50;;;;;;5058529;28;20176;-91
2021/08/07 06:19:17;;;;;;;21.63;16.57;;;16.00;93.30;;;;;;5058228;28;20179;-91
2021/08/07 06:21:43;;;;;;;25.20;17.17;;;16.10;93.30;;;;;;5058082;28;20183;-91
2021/08/07 06:24:09;;;;;;;20.48;16.17;;;16.20;93.40;;;;;;5076430;28;20671;-91
2021/08/07 06:26:35;;;;;;;26.08;18.05;;;16.30;93.40;;;;;;5075841;28;20592;-91
2021/08/07 06:29:00;;;;;;;22.52;15.55;;;16.40;93.50;;;;;;5057849;28;20203;-91
2021/08/07 06:31:26;;;;;;;21.65;16.67;;;16.30;92.80;;;;;;5057971;28;20175;-91
2021/08/07 06:33:54;;;;;;;18.88;15.13;;;16.40;93.00;;;;;;5075780;28;20187;-91
2021/08/07 06:36:19;;;;;;;18.65;15.45;;;16.60;93.10;;;;;;5076473;28;20539;-91
2021/08/07 06:38:45;;;;;;;18.38;15.07;;;16.70;92.60;;;;;;5058174;28;20179;-91
2021/08/07 06:41:11;;;;;;;19.58;15.35;;;16.60;92.20;;;;;;5057699;28;20179;-91
2021/08/07 06:43:37;;;;;;;25.60;15.07;;;16.70;92.20;;;;;;5056938;28;20211;-91
2021/08/07 06:46:03;;;;;;;15.55;13.80;;;16.70;91.90;;;;;;5057005;28;20179;-92
2021/08/07 06:48:29;;;;;;;18.63;13.63;;;16.80;91.80;;;;;;5074224;28;20195;-90
2021/08/07 06:50:55;;;;;;;21.38;12.82;;;16.80;91.20;;;;;;5057003;28;20229;-90
2021/08/07 06:53:20;;;;;;;18.13;12.35;;;16.80;91.40;;;;;;5074769;28;20195;-90
2021/08/07 06:55:46;;;;;;;19.30;12.00;;;16.80;91.30;;;;;;5074692;28;20167;-91
2021/08/07 06:58:12;;;;;;;14.63;11.15;;;16.80;91.20;;;;;;5074923;28;20224;-91
2021/08/07 07:00:39;;;;;;;12.98;10.05;;;16.80;90.70;;;;;;5056688;28;20175;-91
2021/08/07 07:03:05;;;;;;;19.58;11.07;;;16.80;90.50;;;;;;5056841;28;20199;-90
2021/08/07 07:05:32;;;;;;;17.90;11.02;;;16.80;90.70;;;;;;5056706;28;20245;-91
2021/08/07 07:07:59;;;;;;;15.45;10.73;;;16.80;90.90;;;;;;5056642;28;20233;-91
2021/08/07 07:10:25;;;;;;;20.17;11.02;;;16.80;91.00;;;;;;5056916;28;20221;-91
2021/08/07 07:12:51;;;;;;;14.32;10.48;;;16.80;91.10;;;;;;5074596;28;20167;-90
2021/08/07 07:15:17;;;;;;;13.70;9.98;;;16.80;90.90;;;;;;5074316;28;20167;-91
2021/08/07 07:17:43;;;;;;;14.90;10.07;;;16.80;90.40;;;;;;5056481;28;20175;-90
2021/08/07 07:20:10;;;;;;;15.02;10.43;;;16.80;90.50;;;;;;5056274;28;20179;-91
2021/08/07 07:22:36;;;;;;;11.30;9.43;;;16.80;90.40;;;;;;5056298;28;20179;-91
2021/08/07 07:25:02;;;;;;;18.33;9.88;;;16.80;90.40;;;;;;5056960;28;20179;-91
2021/08/07 07:27:27;;;;;;;13.13;9.13;;;16.90;90.00;;;;;;5074815;28;20174;-91
2021/08/07 07:29:53;;;;;;;22.70;9.73;;;16.80;89.90;;;;;;5056306;28;20175;-91
2021/08/07 07:32:19;;;;;;;14.43;9.98;;;16.90;90.20;;;;;;5056592;28;20182;-90
2021/08/07 07:34:44;;;;;;;13.32;9.30;;;17.00;90.20;;;;;;5056669;28;20290;-91
2021/08/07 07:37:10;;;;;;;17.38;9.50;;;17.00;90.10;;;;;;5074196;28;20647;-91
2021/08/07 07:39:36;;;;;;;13.85;8.45;;;17.10;90.00;;;;;;5056320;28;20640;-90
2021/08/07 07:42:02;;;;;;;12.63;9.02;;;17.10;90.10;;;;;;5074551;28;20171;-90
2021/08/07 07:44:28;;;;;;;12.27;8.95;;;17.10;89.80;;;;;;5074796;28;20215;-90
2021/08/07 07:46:53;;;;;;;9.90;7.95;;;17.20;89.60;;;;;;5074617;28;20179;-90
2021/08/07 07:49:19;;;;;;;10.38;8.77;;;17.20;89.00;;;;;;5056278;28;20290;-91
2021/08/07 07:51:45;;;;;;;13.70;8.55;;;17.20;89.10;;;;;;5056236;28;20321;-90
2021/08/07 07:54:10;;;;;;;15.48;8.82;;;17.20;89.50;;;;;;5056411;28;20223;-91
2021/08/07 07:56:36;;;;;;;13.32;7.38;;;17.20;89.60;;;;;;5055651;28;20175;-90
2021/08/07 07:59:01;;;;;;;12.57;9.00;;;17.30;89.10;;;;;;5056021;28;20206;-90
2021/08/07 08:01:27;;;;;;;8.60;6.70;;;17.40;89.30;;;;;;5055116;28;20598;-92
2021/08/07 08:03:53;;;;;;;14.80;6.20;;;17.60;89.20;;;;;;5055991;28;20195;-92
2021/08/07 08:06:19;;;;;;;8.45;4.25;;;17.60;88.50;;;;;;5055935;28;20265;-92
2021/08/07 08:08:44;;;;;;;8.25;4.57;;;17.60;87.80;;;;;;5055820;28;20214;-92
2021/08/07 08:11:10;;;;;;;9.68;5.35;;;17.50;87.70;;;;;;5055547;28;20175;-92
2021/08/07 08:13:38;;;;;;;10.18;4.97;;;17.50;87.60;;;;;;5055497;28;20195;-91
2021/08/07 08:16:05;;;;;;;5.80;4.32;;;17.40;88.30;;;;;;5056024;28;20708;-91
2021/08/07 08:18:31;;;;;;;7.32;4.53;;;17.50;88.40;;;;;;5073687;28;20216;-90
2021/08/07 08:20:57;;;;;;;6.80;4.93;;;17.60;88.80;;;;;;5055282;28;20586;-91
2021/08/07 08:23:22;;;;;;;6.32;4.22;;;17.90;88.70;;;;;;5073135;28;20334;-91
2021/08/07 08:25:49;;;;;;;5.75;4.00;;;18.00;87.10;;;;;;5073516;28;20171;-90
2021/08/07 08:28:15;;;;;;;7.68;4.30;;;18.10;87.00;;;;;;5073149;28;20195;-90
2021/08/07 08:30:41;;;;;;;6.15;3.83;;;18.10;86.60;;;;;;5073137;28;20180;-90
2021/08/07 08:33:07;;;;;;;7.53;4.13;;;18.10;86.60;;;;;;5073094;28;20210;-90
2021/08/07 08:35:32;;;;;;;7.65;3.63;;;18.10;85.60;;;;;;5073161;28;20234;-90
2021/08/07 08:37:58;;;;;;;7.75;4.13;;;18.00;86.40;;;;;;5073677;28;20176;-90
2021/08/07 08:40:24;;;;;;;3.83;3.42;;;18.00;86.70;;;;;;5073053;28;20181;-91
2021/08/07 08:42:52;;;;;;;4.85;3.60;;;18.10;86.40;;;;;;5072899;28;20599;-91
2021/08/07 08:45:18;;;;;;;5.15;3.50;;;18.10;86.10;;;;;;5079868;28;20201;-90
2021/08/07 08:47:44;;;;;;;7.00;3.65;;;18.10;85.70;;;;;;5061664;28;20260;-90
2021/08/07 08:50:11;;;;;;;7.20;3.72;;;18.20;86.20;;;;;;5062914;28;20180;-90
2021/08/07 08:52:40;;;;;;;4.32;3.22;;;18.30;85.90;;;;;;5062558;28;20171;-91
2021/08/07 08:55:08;;;;;;;7.85;3.65;;;18.30;85.70;;;;;;5062352;28;20179;-90
2021/08/07 08:57:34;;;;;;;6.38;2.90;;;18.30;84.90;;;;;;5062082;28;20210;-90
2021/08/07 09:00:01;;;;;;;6.43;3.65;;;18.20;84.30;;;;;;5062340;28;20210;-90
2021/08/07 09:02:26;;;;;;;9.40;2.97;;;18.30;85.40;;;;;;5060294;28;20175;-90
2021/08/07 09:04:52;;;;;;;7.88;3.20;;;18.30;83.90;;;;;;5061621;28;20244;-90
2021/08/07 09:07:19;;;;;;;6.07;3.28;;;18.30;84.80;;;;;;5062368;28;20176;-90
2021/08/07 09:09:51;;;;;;;4.95;3.17;;;18.40;84.60;;;;;;5062734;28;20287;-89
2021/08/07 09:12:17;;;;;;;4.20;2.92;;;18.30;84.00;;;;;;5082365;28;20163;-89
2021/08/07 09:14:45;;;;;;;5.90;2.67;;;18.50;84.30;;;;;;5067616;28;20199;-90
2021/08/07 09:17:12;;;;;;;4.25;2.83;;;18.60;83.40;;;;;;5067111;28;20262;-89
2021/08/07 09:19:41;;;;;;;4.13;2.55;;;18.60;84.00;;;;;;5067127;28;20184;-90
2021/08/07 09:22:18;;;;;;;4.28;3.08;;;18.60;84.10;;;;;;5067589;28;20178;-89
2021/08/07 09:25:08;;;;;;;7.55;3.20;;;18.70;82.80;;;;;;5066479;28;20209;-89
2021/08/07 09:27:40;;;;;;;5.70;2.60;;;18.80;84.00;;;;;;5066721;28;20190;-89
2021/08/07 09:30:18;;;;;;;6.65;2.75;;;18.90;83.30;;;;;;5065900;28;20186;-90
2021/08/07 09:32:57;;;;;;;4.38;2.40;;;19.00;83.00;;;;;;5065846;28;20174;-90
2021/08/07 09:35:24;;;;;;;3.55;2.17;;;19.20;80.20;;;;;;5066022;28;20262;-90
2021/08/07 09:38:08;;;;;;;5.88;2.50;;;19.30;80.20;;;;;;5066709;28;20184;-89
2021/08/07 09:40:59;;;;;;;4.07;1.98;;;19.20;79.60;;;;;;5065342;28;20212;-89
2021/08/07 09:43:33;;;;;;;2.63;1.95;;;19.00;79.70;;;;;;5066659;28;20210;-90
2021/08/07 09:46:12;;;;;;;4.65;1.80;;;19.00;79.60;;;;;;5065151;28;20182;-89
2021/08/07 09:48:41;;;;;;;3.38;1.83;;;19.00;79.80;;;;;;5064875;28;20595;-89
2021/08/07 09:51:29;;;;;;;2.42;1.70;;;19.20;80.60;;;;;;5066368;28;20179;-89
2021/08/07 09:54:15;;;;;;;4.90;2.22;;;19.50;80.90;;;;;;5063381;28;20203;-90
2021/08/07 09:56:58;;;;;;;4.22;1.88;;;19.30;78.60;;;;;;5065808;28;20167;-90
2021/08/07 09:59:26;;;;;;;2.22;1.77;;;19.50;79.30;;;;;;5063715;28;20179;-89
2021/08/07 10:01:53;;;;;;;3.70;1.98;;;19.70;77.90;;;;;;5063569;28;20191;-90
2021/08/07 10:04:20;;;;;;;3.90;1.98;;;19.50;77.40;;;;;;5065338;28;20199;-90
2021/08/07 10:06:47;;;;;;;5.18;2.08;;;19.30;78.40;;;;;;5080819;28;20172;-89
2021/08/07 10:09:14;;;;;;;4.03;2.20;;;19.40;79.30;;;;;;5079466;28;20199;-90
2021/08/07 10:12:00;;;;;;;3.97;2.08;;;19.70;79.30;;;;;;5078635;28;20167;-91
2021/08/07 10:14:26;;;;;;;3.72;1.73;;;19.80;79.10;;;;;;5061852;28;20199;-89
2021/08/07 10:16:52;;;;;;;5.78;2.00;;;20.10;77.30;;;;;;5060868;28;20174;-89
2021/08/07 10:19:19;;;;;;;6.28;2.03;;;20.20;77.30;;;;;;5078757;28;20171;-89
2021/08/07 10:21:47;;;;;;;5.20;1.63;;;20.40;75.80;;;;;;5061034;28;20179;-89
2021/08/07 10:24:13;;;;;;;3.90;1.65;;;20.20;73.20;;;;;;5075096;28;20270;-88
2021/08/07 10:26:41;;;;;;;8.38;1.92;;;20.00;75.80;;;;;;5057615;28;20260;-88
2021/08/07 10:29:07;;;;;;;2.55;1.60;;;20.30;76.10;;;;;;5057554;28;20203;-88
2021/08/07 10:31:36;;;;;;;5.00;2.25;;;20.40;75.40;;;;;;5075738;28;20183;-88
2021/08/07 10:34:04;;;;;;;3.47;1.60;;;20.40;72.30;;;;;;5057957;28;20198;-88
2021/08/07 10:36:30;;;;;;;7.75;2.42;;;20.40;72.50;;;;;;5075415;28;20171;-88
2021/08/07 10:38:57;;;;;;;5.18;1.20;;;20.30;73.30;;;;;;5057583;28;20214;-88
2021/08/07 10:41:28;;;;;;;6.10;1.77;;;20.40;72.40;;;;;;5057214;28;20175;-89
2021/08/07 10:43:54;;;;;;;7.35;1.85;;;20.60;71.90;;;;;;5075277;28;20249;-89
2021/08/07 10:46:21;;;;;;;5.10;2.28;;;20.50;73.20;;;;;;5057607;28;20609;-89
2021/08/07 10:48:48;;;;;;;7.88;2.60;;;20.30;72.90;;;;;;5057785;28;20701;-88
2021/08/07 10:51:23;;;;;;;5.78;2.28;;;20.00;73.90;;;;;;5075756;28;20217;-88
2021/08/07 10:53:48;;;;;;;3.38;2.10;;;20.10;73.60;;;;;;5057107;28;20293;-88
2021/08/07 10:56:26;;;;;;;4.85;2.42;;;20.30;73.90;;;;;;5057766;28;20199;-89
2021/08/07 10:58:53;;;;;;;2.25;1.58;;;20.70;72.10;;;;;;5058376;28;20179;-88
2021/08/07 11:01:22;;;;;;;3.95;1.90;;;21.00;73.00;;;;;;5057277;28;20530;-89
2021/08/07 11:03:49;;;;;;;2.60;1.70;;;21.30;71.00;;;;;;5057210;28;20286;-89
2021/08/07 11:06:16;;;;;;;5.50;2.00;;;21.50;70.80;;;;;;5075228;28;20186;-88
2021/08/07 11:08:41;;;;;;;4.40;1.65;;;21.70;70.00;;;;;;5074510;28;20229;-89
2021/08/07 11:11:26;;;;;;;4.35;2.20;;;21.70;68.40;;;;;;5056578;28;20171;-88
2021/08/07 11:13:52;;;;;;;7.07;1.75;;;21.40;68.20;;;;;;5074351;28;20241;-89
2021/08/07 11:16:21;;;;;;;8.23;2.03;;;21.50;69.50;;;;;;5074490;28;20564;-89
2021/08/07 11:18:48;;;;;;;6.47;1.90;;;21.90;68.30;;;;;;5074133;28;20179;-89
2021/08/07 11:21:48;;;;;;;4.10;1.90;;;21.90;67.70;;;;;;5074431;28;20218;-89
2021/08/07 11:24:47;;;;;;;3.63;1.70;;;22.20;67.70;;;;;;5074024;28;20183;-88
2021/08/07 11:27:17;;;;;;;5.85;1.83;;;22.00;66.50;;;;;;5074237;28;20174;-88
2021/08/07 11:30:21;;;;;;;5.20;1.73;;;21.90;66.30;;;;;;5073842;28;20688;-88
2021/08/07 11:32:56;;;;;;;3.45;2.08;;;22.20;66.80;;;;;;5056014;28;20171;-89
2021/08/07 11:35:34;;;;;;;4.30;1.88;;;21.90;67.30;;;;;;5056533;28;20715;-89
2021/08/07 11:38:09;;;;;;;5.28;2.20;;;22.20;68.10;;;;;;5056350;28;20191;-88
2021/08/07 11:40:38;;;;;;;4.18;1.70;;;22.20;65.60;;;;;;5074025;28;20167;-88
2021/08/07 11:43:05;;;;;;;2.33;1.85;;;22.10;63.80;;;;;;5074237;28;20215;-88
2021/08/07 11:45:31;;;;;;;4.15;2.05;;;22.20;64.70;;;;;;5056432;28;20168;-88
2021/08/07 11:47:58;;;;;;;4.93;1.77;;;22.20;63.80;;;;;;5056547;28;20738;-88
2021/08/07 11:50:24;;;;;;;3.70;1.52;;;22.20;64.80;;;;;;5056753;28;20221;-88
2021/08/07 11:52:50;;;;;;;5.22;2.28;;;22.20;64.70;;;;;;5075143;28;20171;-89
2021/08/07 11:55:16;;;;;;;5.88;2.05;;;22.60;63.10;;;;;;5056406;28;20282;-88
2021/08/07 11:57:42;;;;;;;7.15;3.22;;;22.40;63.90;;;;;;5074890;28;20203;-88
2021/08/07 12:00:25;;;;;;;7.35;2.20;;;22.90;63.50;;;;;;5056636;28;20202;-88
2021/08/07 12:02:58;;;;;;;10.27;2.50;;;22.70;61.50;;;;;;5056143;28;20167;-88
2021/08/07 12:05:24;;;;;;;4.82;2.13;;;22.20;64.50;;;;;;5055816;28;20194;-88
2021/08/07 12:08:16;;;;;;;3.35;1.80;;;22.00;64.90;;;;;;5073733;28;20284;-88
2021/08/07 12:11:10;;;;;;;2.80;1.35;;;21.80;65.70;;;;;;5052365;28;20673;-88
2021/08/07 12:13:41;;;;;;;3.53;1.67;;;21.90;64.30;;;;;;5070385;28;20238;-89
2021/08/07 12:16:09;;;;;;;3.38;1.55;;;21.80;65.60;;;;;;5073730;28;20156;-89
2021/08/07 12:18:45;;;;;;;5.75;1.38;;;21.50;66.90;;;;;;5056110;28;20186;-89
2021/08/07 12:21:12;;;;;;;6.38;1.70;;;21.50;67.00;;;;;;5056049;28;20175;-89
2021/08/07 12:23:50;;;;;;;2.55;1.75;;;21.50;69.00;;;;;;5073373;28;20623;-89
2021/08/07 12:26:17;;;;;;;4.18;1.70;;;21.60;71.00;;;;;;5056556;28;20186;-89
2021/08/07 12:28:44;;;;;;;2.45;1.50;;;21.80;69.80;;;;;;5073312;28;20238;-89
2021/08/07 12:31:10;;;;;;;2.72;1.63;;;21.70;70.10;;;;;;5055660;28;20171;-88
2021/08/07 12:33:40;;;;;;;4.82;1.73;;;21.60;72.90;;;;;;5055073;28;20205;-88
2021/08/07 12:36:11;;;;;;;2.67;1.52;;;21.60;70.40;;;;;;5056120;28;20172;-88
2021/08/07 12:38:41;;;;;;;3.75;2.00;;;21.50;70.60;;;;;;5073142;28;20174;-89
2021/08/07 12:41:07;;;;;;;5.35;2.25;;;21.50;70.30;;;;;;5073386;28;20167;-88
2021/08/07 12:43:34;;;;;;;4.28;1.80;;;21.50;70.90;;;;;;5073250;28;20215;-89